Time;durP1;ratioP1;P1;durP2;ratioP2;P2;SDS_P1;SDS_P2;PMS_P1;PMS_P2;Temp;Humidity;BMP_temperature;BMP_pressure;BME280_temperature;BME280_humidity;BME280_pressure;Samples;Min_cycle;Max_cycle;Signal;HPM_P1;HPM_P2
2024/01/09 00:02:18;;;;;;;108.15;102.45;;;-2.90;99.90;;;;;;4984959;28;20129;-33
2024/01/09 00:04:43;;;;;;;109.43;104.05;;;-2.90;99.90;;;;;;4985711;28;20133;-34
2024/01/09 00:07:09;;;;;;;119.32;113.50;;;-2.90;99.90;;;;;;4983230;28;20522;-33
2024/01/09 00:09:36;;;;;;;115.28;109.35;;;-2.90;99.90;;;;;;4974383;28;20145;-34
2024/01/09 00:12:02;;;;;;;126.65;120.47;;;-2.90;99.90;;;;;;4985968;28;20383;-33
2024/01/09 00:14:28;;;;;;;115.40;109.70;;;-3.00;99.90;;;;;;4986621;28;20574;-34
2024/01/09 00:16:53;;;;;;;121.22;115.18;;;-3.00;99.90;;;;;;4980860;28;20038;-33
2024/01/09 00:19:19;;;;;;;116.03;110.18;;;-3.00;99.90;;;;;;4984512;28;20613;-43
2024/01/09 00:21:48;;;;;;;126.00;119.82;;;-3.00;99.90;;;;;;4966302;28;20088;-33
2024/01/09 00:24:13;;;;;;;112.30;106.72;;;-3.00;99.90;;;;;;4984895;28;20042;-33
2024/01/09 00:26:43;;;;;;;108.90;103.32;;;-3.00;99.90;;;;;;4982308;28;20414;-40
2024/01/09 00:29:09;;;;;;;115.18;109.50;;;-3.00;99.90;;;;;;4982960;28;20121;-44
2024/01/09 00:31:35;;;;;;;110.30;104.90;;;-3.00;99.90;;;;;;4989239;28;20054;-32
2024/01/09 00:34:01;;;;;;;115.28;109.70;;;-3.10;99.90;;;;;;4983358;28;20061;-38
2024/01/09 00:36:27;;;;;;;112.35;106.75;;;-3.10;99.90;;;;;;4982208;28;20054;-34
2024/01/09 00:38:52;;;;;;;122.55;116.55;;;-3.10;99.90;;;;;;4984473;28;20156;-32
2024/01/09 00:41:18;;;;;;;122.90;116.90;;;-3.10;99.90;;;;;;4982375;28;20125;-33
2024/01/09 00:43:44;;;;;;;120.80;114.80;;;-3.10;99.90;;;;;;4987244;28;20061;-33
2024/01/09 00:46:10;;;;;;;121.90;116.10;;;-3.10;99.90;;;;;;4981107;28;20559;-42
2024/01/09 00:48:35;;;;;;;125.70;119.47;;;-3.20;99.90;;;;;;4968204;28;20046;-41
2024/01/09 00:51:01;;;;;;;124.75;118.65;;;-3.20;99.90;;;;;;4982442;28;20108;-41
2024/01/09 00:53:27;;;;;;;121.78;115.82;;;-3.20;99.90;;;;;;4985539;28;20056;-33
2024/01/09 00:55:52;;;;;;;120.10;114.30;;;-3.30;99.90;;;;;;4984528;28;20054;-32
2024/01/09 00:58:18;;;;;;;119.95;114.18;;;-3.20;99.90;;;;;;4982680;28;20054;-33
2024/01/09 01:00:44;;;;;;;119.60;113.70;;;-3.20;99.90;;;;;;4989867;28;20062;-32
2024/01/09 01:03:10;;;;;;;122.72;116.63;;;-3.30;99.90;;;;;;4988284;28;20057;-32
2024/01/09 01:05:36;;;;;;;118.35;112.55;;;-3.30;99.90;;;;;;4985433;28;20457;-32
2024/01/09 01:08:01;;;;;;;133.02;126.72;;;-3.30;99.90;;;;;;4986949;28;20123;-32
2024/01/09 01:10:27;;;;;;;124.43;118.35;;;-3.30;99.90;;;;;;4990522;28;20205;-32
2024/01/09 01:12:53;;;;;;;126.13;120.03;;;-3.40;99.90;;;;;;4985224;28;20058;-38
2024/01/09 01:15:18;;;;;;;122.55;116.68;;;-3.40;99.90;;;;;;4987804;28;20054;-33
2024/01/09 01:17:44;;;;;;;125.78;119.70;;;-3.40;99.90;;;;;;4985036;28;20137;-33
2024/01/09 01:20:10;;;;;;;124.07;118.15;;;-3.40;99.90;;;;;;4985823;28;20058;-33
2024/01/09 01:22:36;;;;;;;120.07;114.18;;;-3.40;99.90;;;;;;4969142;28;20078;-31
2024/01/09 01:25:02;;;;;;;122.30;116.35;;;-3.40;99.90;;;;;;4986766;28;20085;-33
2024/01/09 01:27:28;;;;;;;129.25;123.03;;;-3.40;99.90;;;;;;4985648;28;20058;-33
2024/01/09 01:29:54;;;;;;;134.25;128.00;;;-3.40;99.90;;;;;;4987448;28;20552;-32
2024/01/09 01:32:20;;;;;;;141.38;134.50;;;-3.50;99.90;;;;;;4966544;28;20066;-33
2024/01/09 01:34:46;;;;;;;134.65;128.15;;;-3.50;99.90;;;;;;4985017;28;20046;-33
2024/01/09 01:37:12;;;;;;;128.95;122.70;;;-3.50;99.90;;;;;;4983382;28;20138;-32
2024/01/09 01:39:37;;;;;;;128.55;122.38;;;-3.50;99.90;;;;;;4988509;28;20058;-32
2024/01/09 01:42:03;;;;;;;135.38;128.82;;;-3.60;99.90;;;;;;4988023;28;20519;-32
2024/01/09 01:44:29;;;;;;;140.90;134.35;;;-3.60;99.90;;;;;;4987758;28;20081;-32
2024/01/09 01:46:55;;;;;;;131.38;124.90;;;-3.60;99.90;;;;;;4986856;28;20144;-33
2024/01/09 01:49:21;;;;;;;143.30;136.68;;;-3.60;99.90;;;;;;4982862;28;20412;-32
2024/01/09 01:51:50;;;;;;;133.32;126.95;;;-3.60;99.90;;;;;;4984995;28;20046;-39
2024/01/09 01:54:16;;;;;;;136.60;130.27;;;-3.60;99.90;;;;;;4986582;28;20085;-32
2024/01/09 01:56:44;;;;;;;140.45;133.80;;;-3.60;99.90;;;;;;4985941;28;20057;-33
2024/01/09 01:59:11;;;;;;;140.60;134.07;;;-3.70;99.90;;;;;;4966548;28;20136;-32
2024/01/09 02:01:38;;;;;;;148.10;141.13;;;-3.70;99.90;;;;;;4973616;28;20504;-32
2024/01/09 02:04:05;;;;;;;138.73;132.32;;;-3.70;99.90;;;;;;4985503;28;20137;-33
2024/01/09 02:06:31;;;;;;;150.95;143.85;;;-3.70;99.90;;;;;;4986983;28;20571;-32
2024/01/09 02:08:57;;;;;;;159.00;151.55;;;-3.70;99.90;;;;;;4985669;28;20141;-32
2024/01/09 02:11:22;;;;;;;154.55;147.27;;;-3.70;99.90;;;;;;4985448;28;20120;-33
2024/01/09 02:13:48;;;;;;;165.73;158.18;;;-3.70;99.90;;;;;;4985649;28;20138;-33
2024/01/09 02:16:14;;;;;;;169.82;162.02;;;-3.70;99.90;;;;;;4981065;28;20508;-42
2024/01/09 02:18:40;;;;;;;159.60;152.20;;;-3.70;99.90;;;;;;4968542;28;20184;-32
2024/01/09 02:21:05;;;;;;;172.90;164.90;;;-3.80;99.90;;;;;;4977887;28;20134;-31
2024/01/09 02:23:31;;;;;;;178.43;170.20;;;-3.80;99.90;;;;;;4988366;28;20065;-32
2024/01/09 02:25:57;;;;;;;183.02;174.60;;;-3.80;99.90;;;;;;4985199;28;20512;-32
2024/01/09 02:28:24;;;;;;;172.35;164.32;;;-3.80;99.90;;;;;;4987559;28;20402;-33
2024/01/09 02:30:53;;;;;;;178.13;169.88;;;-3.80;99.90;;;;;;4981837;28;20223;-32
2024/01/09 02:33:19;;;;;;;177.57;169.32;;;-3.80;99.90;;;;;;4980190;28;20482;-34
2024/01/09 02:35:45;;;;;;;185.45;176.88;;;-3.80;99.90;;;;;;4984261;28;20130;-32
2024/01/09 02:38:11;;;;;;;201.07;191.90;;;-3.80;99.90;;;;;;4987881;28;20042;-32
2024/01/09 02:40:37;;;;;;;187.43;178.77;;;-3.80;99.90;;;;;;4984357;28;20412;-32
2024/01/09 02:43:03;;;;;;;204.82;195.48;;;-3.80;99.90;;;;;;4989072;28;20050;-33
2024/01/09 02:45:28;;;;;;;194.52;185.45;;;-3.80;99.90;;;;;;4983614;28;20050;-32
2024/01/09 02:47:54;;;;;;;187.20;178.45;;;-3.80;99.90;;;;;;4986126;28;20046;-33
2024/01/09 02:50:23;;;;;;;205.40;195.95;;;-3.90;99.90;;;;;;4984961;28;20054;-41
2024/01/09 02:52:48;;;;;;;190.88;182.07;;;-3.90;99.90;;;;;;4985573;28;20165;-42
2024/01/09 02:55:14;;;;;;;209.80;200.18;;;-3.90;99.90;;;;;;4985366;28;20582;-41
2024/01/09 02:57:40;;;;;;;200.02;190.90;;;-3.90;99.90;;;;;;4985798;28;20058;-44
2024/01/09 03:00:10;;;;;;;202.60;193.10;;;-3.90;99.90;;;;;;4967477;28;20046;-42
2024/01/09 03:02:36;;;;;;;213.20;203.38;;;-3.90;99.90;;;;;;4966095;28;20061;-42
2024/01/09 03:05:06;;;;;;;205.23;195.70;;;-4.00;99.90;;;;;;4989119;28;20043;-42
2024/01/09 03:07:33;;;;;;;209.73;200.00;;;-3.90;99.90;;;;;;4976536;28;20134;-41
2024/01/09 03:09:59;;;;;;;199.50;190.20;;;-4.00;99.90;;;;;;4990372;28;20054;-32
2024/01/09 03:12:25;;;;;;;201.18;191.43;;;-4.00;99.90;;;;;;4970117;28;20077;-32
2024/01/09 03:14:50;;;;;;;210.70;200.68;;;-4.00;99.90;;;;;;4988554;28;20042;-32
2024/01/09 03:17:16;;;;;;;208.85;199.02;;;-4.00;99.90;;;;;;4985030;28;20120;-32
2024/01/09 03:19:43;;;;;;;220.77;210.40;;;-4.00;99.90;;;;;;4985827;28;20527;-32
2024/01/09 03:22:08;;;;;;;211.73;201.88;;;-4.00;99.90;;;;;;4987367;28;20049;-32
2024/01/09 03:24:34;;;;;;;218.27;208.02;;;-4.00;99.90;;;;;;4986940;28;20179;-32
2024/01/09 03:27:00;;;;;;;226.65;215.98;;;-4.10;99.90;;;;;;4958143;28;20450;-32
2024/01/09 03:29:26;;;;;;;216.55;206.32;;;-4.10;99.90;;;;;;4991600;28;20057;-33
2024/01/09 03:31:52;;;;;;;223.10;212.20;;;-4.10;99.90;;;;;;4990366;28;20046;-33
2024/01/09 03:34:17;;;;;;;232.93;221.90;;;-4.10;99.90;;;;;;4988455;28;20050;-34
2024/01/09 03:36:44;;;;;;;214.70;204.40;;;-4.10;99.90;;;;;;4972542;28;20048;-33
2024/01/09 03:39:12;;;;;;;227.75;217.13;;;-4.20;99.90;;;;;;4989124;28;20081;-33
2024/01/09 03:41:38;;;;;;;207.70;197.70;;;-4.10;99.90;;;;;;4987197;28;20499;-32
2024/01/09 03:44:04;;;;;;;238.65;227.43;;;-4.20;99.90;;;;;;4989148;28;20081;-31
2024/01/09 03:46:29;;;;;;;201.50;191.68;;;-4.20;99.90;;;;;;4987246;28;20062;-32
2024/01/09 03:48:56;;;;;;;225.95;215.25;;;-4.30;99.90;;;;;;4983323;28;20073;-32
2024/01/09 03:51:21;;;;;;;240.65;229.35;;;-4.30;99.90;;;;;;4969847;28;20046;-32
2024/01/09 03:53:47;;;;;;;211.07;200.98;;;-4.30;99.90;;;;;;4988503;28;20459;-32
2024/01/09 03:56:13;;;;;;;197.10;187.75;;;-4.30;99.90;;;;;;4988545;28;20518;-40
2024/01/09 03:58:39;;;;;;;222.68;211.98;;;-4.30;99.90;;;;;;4985517;28;20584;-33
2024/01/09 04:01:04;;;;;;;210.57;200.40;;;-4.30;99.90;;;;;;4987746;28;20444;-32
2024/01/09 04:03:30;;;;;;;222.18;211.75;;;-4.30;99.90;;;;;;4988567;28;20062;-32
2024/01/09 04:05:56;;;;;;;222.35;211.73;;;-4.30;99.90;;;;;;4984165;28;20456;-32
2024/01/09 04:08:21;;;;;;;214.82;204.77;;;-4.30;99.90;;;;;;4970689;28;20058;-32
2024/01/09 04:10:47;;;;;;;210.50;200.52;;;-4.30;99.90;;;;;;4971448;28;20539;-32
2024/01/09 04:13:13;;;;;;;225.35;214.63;;;-4.30;99.90;;;;;;4988156;28;20112;-39
2024/01/09 04:15:40;;;;;;;214.55;204.50;;;-4.30;99.90;;;;;;4972288;28;20580;-35
2024/01/09 04:18:06;;;;;;;224.07;213.63;;;-4.40;99.90;;;;;;4946067;28;20141;-32
2024/01/09 04:20:32;;;;;;;241.63;230.32;;;-4.40;99.90;;;;;;4981476;28;20141;-32
2024/01/09 04:22:58;;;;;;;225.02;214.38;;;-4.30;99.90;;;;;;4985350;28;20046;-31
2024/01/09 04:25:23;;;;;;;239.02;227.77;;;-4.30;99.90;;;;;;4991311;28;20556;-33
2024/01/09 04:27:49;;;;;;;220.35;209.95;;;-4.40;99.90;;;;;;4985374;28;20705;-32
2024/01/09 04:30:15;;;;;;;212.85;202.98;;;-4.40;99.90;;;;;;4989435;28;20529;-33
2024/01/09 04:32:41;;;;;;;242.45;230.95;;;-4.40;99.90;;;;;;4987481;28;20058;-33
2024/01/09 04:35:06;;;;;;;205.57;196.00;;;-4.40;99.90;;;;;;4979230;28;20050;-32
2024/01/09 04:37:32;;;;;;;231.27;220.48;;;-4.40;99.90;;;;;;4989302;28;20069;-32
2024/01/09 04:39:58;;;;;;;225.00;214.32;;;-4.40;99.90;;;;;;4985638;28;20058;-32
2024/01/09 04:42:23;;;;;;;238.35;227.30;;;-4.40;99.90;;;;;;4988632;28;20670;-33
2024/01/09 04:44:49;;;;;;;256.92;244.98;;;-4.50;99.90;;;;;;4985602;28;20133;-32
2024/01/09 04:47:18;;;;;;;243.73;232.13;;;-4.40;99.90;;;;;;4988186;28;20049;-32
2024/01/09 04:49:43;;;;;;;232.50;221.55;;;-4.40;99.90;;;;;;4987668;28;20046;-33
2024/01/09 04:52:09;;;;;;;256.60;244.40;;;-4.50;99.90;;;;;;4982365;28;20113;-33
2024/01/09 04:54:35;;;;;;;246.68;235.25;;;-4.50;99.90;;;;;;4986768;28;20088;-32
2024/01/09 04:57:01;;;;;;;266.83;254.27;;;-4.50;99.90;;;;;;4986876;28;20081;-32
2024/01/09 04:59:26;;;;;;;257.42;245.35;;;-4.50;99.90;;;;;;4983010;28;20092;-32
2024/01/09 05:01:52;;;;;;;244.32;232.82;;;-4.50;99.90;;;;;;4984792;28;20039;-32
2024/01/09 05:04:18;;;;;;;262.48;250.00;;;-4.50;99.90;;;;;;4984106;28;20046;-32
2024/01/09 05:06:44;;;;;;;267.00;254.48;;;-4.50;99.90;;;;;;4965885;28;20217;-32
2024/01/09 05:09:10;;;;;;;248.40;236.63;;;-4.50;99.90;;;;;;4985786;28;20053;-32
2024/01/09 05:11:36;;;;;;;251.50;239.70;;;-4.50;99.90;;;;;;4982461;28;20043;-33
2024/01/09 05:14:01;;;;;;;255.75;243.82;;;-4.50;99.90;;;;;;4984395;28;20554;-32
2024/01/09 05:16:27;;;;;;;254.32;242.23;;;-4.50;99.90;;;;;;4984075;28;20061;-38
2024/01/09 05:18:53;;;;;;;243.63;232.30;;;-4.50;99.90;;;;;;4987393;28;20050;-41
2024/01/09 05:21:19;;;;;;;256.83;244.82;;;-4.50;99.90;;;;;;4986394;28;20489;-32
2024/01/09 05:23:45;;;;;;;274.20;261.20;;;-4.50;99.90;;;;;;4985929;28;20053;-32
2024/01/09 05:26:11;;;;;;;291.65;277.48;;;-4.60;99.90;;;;;;4969188;28;20703;-32
2024/01/09 05:28:36;;;;;;;295.08;281.15;;;-4.50;99.90;;;;;;4982031;28;20058;-32
2024/01/09 05:31:02;;;;;;;271.27;258.42;;;-4.60;99.90;;;;;;4985755;28;20137;-32
2024/01/09 05:33:28;;;;;;;283.17;269.85;;;-4.60;99.90;;;;;;4967723;28;20117;-34
2024/01/09 05:35:54;;;;;;;295.80;281.75;;;-4.60;99.90;;;;;;4988570;28;20053;-33
2024/01/09 05:38:20;;;;;;;292.85;278.73;;;-4.60;99.90;;;;;;4986173;28;20150;-32
2024/01/09 05:40:46;;;;;;;297.38;283.10;;;-4.60;99.90;;;;;;4985817;28;20050;-32
2024/01/09 05:43:12;;;;;;;294.15;279.73;;;-4.60;99.90;;;;;;4985612;28;20054;-32
2024/01/09 05:45:38;;;;;;;293.05;278.90;;;-4.60;99.90;;;;;;4960142;28;20057;-32
2024/01/09 05:48:04;;;;;;;290.27;276.30;;;-4.60;99.90;;;;;;4986017;28;20050;-32
2024/01/09 05:50:30;;;;;;;304.15;289.23;;;-4.60;99.90;;;;;;4984008;28;20089;-32
2024/01/09 05:52:56;;;;;;;295.98;281.48;;;-4.60;99.90;;;;;;4985907;28;20054;-36
2024/01/09 05:55:22;;;;;;;306.85;291.20;;;-4.70;99.90;;;;;;4982758;28;20443;-32
2024/01/09 05:57:49;;;;;;;300.27;285.35;;;-4.60;99.90;;;;;;4968355;28;20153;-32
2024/01/09 06:00:16;;;;;;;305.60;290.20;;;-4.60;99.90;;;;;;4986867;28;20480;-32
2024/01/09 06:02:41;;;;;;;310.58;294.83;;;-4.60;99.90;;;;;;4978898;28;20061;-32
2024/01/09 06:05:07;;;;;;;319.02;302.80;;;-4.70;99.90;;;;;;4985607;28;20039;-33
2024/01/09 06:07:33;;;;;;;318.50;301.65;;;-4.70;99.90;;;;;;4985453;28;20167;-33
2024/01/09 06:09:59;;;;;;;308.17;292.33;;;-4.70;99.90;;;;;;4986362;28;20511;-34
2024/01/09 06:12:24;;;;;;;308.83;292.85;;;-4.70;99.90;;;;;;4987019;28;20058;-33
2024/01/09 06:14:50;;;;;;;289.85;274.98;;;-4.80;99.90;;;;;;4984955;28;20129;-32
2024/01/09 06:17:16;;;;;;;280.35;265.98;;;-4.70;99.90;;;;;;4988775;28;20112;-33
2024/01/09 06:19:42;;;;;;;295.58;280.30;;;-4.80;99.90;;;;;;4982137;28;20439;-32
2024/01/09 06:22:07;;;;;;;311.95;295.73;;;-4.80;99.90;;;;;;4986886;28;20065;-32
2024/01/09 06:24:33;;;;;;;310.17;294.13;;;-4.80;99.90;;;;;;4984058;28;20159;-32
2024/01/09 06:26:59;;;;;;;299.30;283.98;;;-4.80;99.90;;;;;;4987202;28;20053;-32
2024/01/09 06:29:25;;;;;;;299.25;283.98;;;-4.80;99.90;;;;;;4979235;28;20054;-32
2024/01/09 06:31:50;;;;;;;281.15;266.83;;;-4.80;99.90;;;;;;4957483;28;20043;-32
2024/01/09 06:34:16;;;;;;;291.67;276.63;;;-4.80;99.90;;;;;;4986070;28;20137;-34
2024/01/09 06:36:45;;;;;;;283.02;268.50;;;-4.80;99.90;;;;;;4986446;28;20518;-32
2024/01/09 06:39:12;;;;;;;274.27;260.30;;;-4.80;99.90;;;;;;4978394;28;20100;-36
2024/01/09 06:41:37;;;;;;;287.35;272.63;;;-4.80;99.90;;;;;;4960931;28;20081;-33
2024/01/09 06:44:03;;;;;;;278.70;264.15;;;-4.90;99.90;;;;;;4985517;28;20054;-32
2024/01/09 06:46:30;;;;;;;292.92;277.58;;;-4.90;99.90;;;;;;4985181;28;20535;-32
2024/01/09 06:48:55;;;;;;;299.10;283.38;;;-4.90;99.90;;;;;;4980894;28;20054;-32
2024/01/09 06:51:21;;;;;;;281.35;266.90;;;-4.90;99.90;;;;;;4980776;28;20053;-32
2024/01/09 06:53:46;;;;;;;287.25;272.52;;;-4.80;99.90;;;;;;4986346;28;20133;-32
2024/01/09 06:56:12;;;;;;;286.40;271.42;;;-4.90;99.90;;;;;;4983730;28;20483;-31
2024/01/09 06:58:38;;;;;;;272.00;257.88;;;-4.90;99.90;;;;;;4984477;28;20146;-32
2024/01/09 07:01:05;;;;;;;284.35;269.60;;;-4.90;99.90;;;;;;4982799;28;20082;-33
2024/01/09 07:03:31;;;;;;;293.90;278.85;;;-4.90;99.90;;;;;;4985022;28;20073;-40
2024/01/09 07:05:57;;;;;;;285.60;270.58;;;-4.90;99.90;;;;;;4981715;28;20489;-42
2024/01/09 07:08:23;;;;;;;273.42;259.15;;;-4.90;99.90;;;;;;4982012;28;20451;-42
2024/01/09 07:10:48;;;;;;;287.88;272.40;;;-4.90;99.90;;;;;;4983943;28;20483;-43
2024/01/09 07:13:14;;;;;;;279.35;264.40;;;-4.90;99.90;;;;;;4982225;28;20058;-40
2024/01/09 07:15:41;;;;;;;280.88;265.45;;;-4.90;99.90;;;;;;4981319;28;20138;-40
2024/01/09 07:18:06;;;;;;;289.38;273.98;;;-4.90;99.90;;;;;;4981070;28;20077;-41
2024/01/09 07:20:32;;;;;;;283.85;268.48;;;-4.90;99.90;;;;;;4982146;28;20455;-42
2024/01/09 07:22:58;;;;;;;285.80;270.50;;;-4.90;99.90;;;;;;4980218;28;20142;-41
2024/01/09 07:25:23;;;;;;;300.23;284.02;;;-5.00;99.90;;;;;;4968540;28;20480;-45
2024/01/09 07:27:49;;;;;;;300.77;284.45;;;-5.00;99.90;;;;;;4966270;28;20057;-41
2024/01/09 07:30:16;;;;;;;284.20;268.60;;;-5.00;99.90;;;;;;4986231;28;20050;-41
2024/01/09 07:32:42;;;;;;;293.13;277.63;;;-5.00;99.90;;;;;;4981057;28;20519;-41
2024/01/09 07:35:08;;;;;;;291.05;275.00;;;-5.00;99.90;;;;;;4984324;28;20054;-41
2024/01/09 07:37:34;;;;;;;294.83;279.00;;;-5.00;99.90;;;;;;4982525;28;20050;-41
2024/01/09 07:39:59;;;;;;;292.88;276.80;;;-5.00;99.90;;;;;;4977381;28;20055;-41
2024/01/09 07:42:25;;;;;;;293.40;277.55;;;-5.00;99.90;;;;;;4968395;28;20055;-42
2024/01/09 07:44:51;;;;;;;276.88;262.02;;;-5.00;99.90;;;;;;4986284;28;20125;-40
2024/01/09 07:47:16;;;;;;;304.65;288.38;;;-5.00;99.90;;;;;;4984304;28;20046;-41
2024/01/09 07:49:42;;;;;;;301.60;285.33;;;-5.00;99.90;;;;;;4966623;28;20054;-42
2024/01/09 07:52:09;;;;;;;293.50;277.80;;;-5.00;99.90;;;;;;4966235;28;20563;-41
2024/01/09 07:54:34;;;;;;;289.55;274.05;;;-5.00;99.90;;;;;;4984391;28;20142;-42
2024/01/09 07:57:00;;;;;;;290.48;274.85;;;-5.00;99.90;;;;;;4988948;28;20066;-41
2024/01/09 07:59:26;;;;;;;288.40;272.85;;;-5.00;99.90;;;;;;4985745;28;20147;-41
2024/01/09 08:01:55;;;;;;;287.67;271.92;;;-5.00;99.90;;;;;;4971789;28;20047;-39
2024/01/09 08:04:24;;;;;;;298.58;281.92;;;-5.00;99.90;;;;;;4980701;28;20484;-42
2024/01/09 08:06:50;;;;;;;295.40;279.27;;;-5.00;99.90;;;;;;4983060;28;20058;-40
2024/01/09 08:09:19;;;;;;;282.95;267.45;;;-5.00;99.90;;;;;;4983122;28;20146;-40
2024/01/09 08:11:46;;;;;;;288.88;272.98;;;-5.00;99.90;;;;;;4990083;28;20125;-40
2024/01/09 08:14:12;;;;;;;284.33;268.38;;;-5.00;99.90;;;;;;4983093;28;20053;-41
2024/01/09 08:16:38;;;;;;;277.73;262.00;;;-4.90;99.90;;;;;;4984672;28;20141;-38
2024/01/09 08:19:06;;;;;;;283.75;267.67;;;-4.90;99.90;;;;;;4983018;28;20492;-43
2024/01/09 08:21:34;;;;;;;270.55;255.27;;;-4.90;99.90;;;;;;4996296;28;20422;-42
2024/01/09 08:24:00;;;;;;;271.17;255.65;;;-4.90;99.90;;;;;;4969932;28;20050;-40
2024/01/09 08:26:25;;;;;;;273.63;257.70;;;-4.90;99.90;;;;;;4985552;28;20292;-41
2024/01/09 08:28:51;;;;;;;258.42;243.40;;;-4.80;99.90;;;;;;4974535;28;20046;-41
2024/01/09 08:31:17;;;;;;;259.00;244.15;;;-4.80;99.90;;;;;;4983073;28;20079;-39
2024/01/09 08:33:42;;;;;;;272.10;256.20;;;-4.80;99.90;;;;;;4979559;28;20061;-40
2024/01/09 08:36:08;;;;;;;269.30;253.45;;;-4.80;99.90;;;;;;4986201;28;20070;-40
2024/01/09 08:38:34;;;;;;;263.63;248.02;;;-4.70;99.90;;;;;;4990915;28;20065;-41
2024/01/09 08:41:02;;;;;;;260.30;244.80;;;-4.70;99.90;;;;;;4983182;28;20132;-40
2024/01/09 08:43:28;;;;;;;261.02;245.48;;;-4.70;99.90;;;;;;4992204;28;20551;-40
2024/01/09 08:45:54;;;;;;;249.88;235.00;;;-4.70;99.90;;;;;;4971578;28;20497;-41
2024/01/09 08:48:20;;;;;;;246.52;231.70;;;-4.70;99.90;;;;;;4989228;28;20132;-32
2024/01/09 08:50:46;;;;;;;228.25;214.65;;;-4.70;99.90;;;;;;4985956;28;20192;-31
2024/01/09 08:53:11;;;;;;;226.90;213.02;;;-4.60;99.90;;;;;;4983749;28;20129;-32
2024/01/09 08:55:37;;;;;;;231.50;217.55;;;-4.60;99.90;;;;;;4988963;28;20129;-32
2024/01/09 08:58:03;;;;;;;228.63;215.30;;;-4.60;99.90;;;;;;4990768;28;20500;-33
2024/01/09 09:00:29;;;;;;;227.88;214.52;;;-4.60;99.90;;;;;;4987203;28;20142;-32
2024/01/09 09:02:55;;;;;;;239.43;225.20;;;-4.50;99.90;;;;;;4970730;28;20072;-32
2024/01/09 09:05:20;;;;;;;211.75;199.40;;;-4.50;99.90;;;;;;4986612;28;20100;-39
2024/01/09 09:07:46;;;;;;;206.23;194.73;;;-4.50;99.90;;;;;;4970534;28;20120;-42
2024/01/09 09:10:12;;;;;;;202.40;191.25;;;-4.40;99.90;;;;;;4966716;28;20038;-40
2024/01/09 09:12:38;;;;;;;200.80;189.85;;;-4.40;99.90;;;;;;4968207;28;20058;-44
2024/01/09 09:15:03;;;;;;;191.05;181.00;;;-4.40;99.90;;;;;;4984023;28;20054;-40
2024/01/09 09:17:30;;;;;;;170.27;160.80;;;-4.30;99.90;;;;;;4988190;28;20430;-41
2024/01/09 09:19:57;;;;;;;184.48;174.98;;;-4.30;99.90;;;;;;4984135;28;20042;-41
2024/01/09 09:22:25;;;;;;;176.00;166.88;;;-4.20;99.90;;;;;;4985354;28;20046;-40
2024/01/09 09:24:54;;;;;;;158.18;150.13;;;-4.10;99.90;;;;;;4985887;28;20070;-42
2024/01/09 09:27:20;;;;;;;160.13;152.25;;;-4.10;99.90;;;;;;4986942;28;20471;-40
2024/01/09 09:29:45;;;;;;;145.88;138.65;;;-4.00;99.90;;;;;;4988297;28;20041;-41
2024/01/09 09:32:11;;;;;;;142.60;135.60;;;-4.00;99.90;;;;;;4985138;28;20046;-42
2024/01/09 09:34:40;;;;;;;150.65;143.50;;;-3.90;99.90;;;;;;4989464;28;20050;-40
2024/01/09 09:37:07;;;;;;;142.25;135.68;;;-3.80;99.90;;;;;;4967714;28;20080;-41
2024/01/09 09:39:33;;;;;;;135.55;129.30;;;-3.80;99.90;;;;;;4989305;28;20050;-43
2024/01/09 09:41:59;;;;;;;122.38;116.80;;;-3.70;99.90;;;;;;4970488;28;20140;-41
2024/01/09 09:44:26;;;;;;;115.03;109.63;;;-3.70;99.90;;;;;;4985587;28;20133;-39
2024/01/09 09:46:53;;;;;;;115.22;110.03;;;-3.60;99.90;;;;;;4986086;28;20046;-41
2024/01/09 09:49:22;;;;;;;110.25;105.20;;;-3.60;99.90;;;;;;4990352;28;20058;-38
2024/01/09 09:51:50;;;;;;;98.68;94.18;;;-3.50;99.90;;;;;;4983095;28;20050;-42
2024/01/09 09:54:17;;;;;;;103.35;98.75;;;-3.50;99.90;;;;;;4984920;28;20061;-41
2024/01/09 09:56:44;;;;;;;103.50;98.72;;;-3.40;99.90;;;;;;4987310;28;20046;-34
2024/01/09 09:59:13;;;;;;;101.15;96.45;;;-3.30;99.90;;;;;;4985138;28;20055;-31
2024/01/09 10:01:43;;;;;;;90.22;85.95;;;-3.30;99.90;;;;;;4987997;28;20404;-32
2024/01/09 10:04:43;;;;;;;84.97;81.10;;;-3.20;99.90;;;;;;4985403;28;20058;-32
2024/01/09 10:07:10;;;;;;;92.18;87.97;;;-3.10;99.90;;;;;;4982685;28;20452;-32
2024/01/09 10:09:43;;;;;;;58.15;55.40;;;-3.00;99.90;;;;;;4985829;28;20468;-33
2024/01/09 10:12:09;;;;;;;52.72;50.08;;;-3.00;99.90;;;;;;4985554;28;20078;-32
2024/01/09 10:14:35;;;;;;;41.85;39.70;;;-2.90;99.90;;;;;;4984358;28;20495;-32
2024/01/09 10:17:03;;;;;;;35.15;33.38;;;-2.90;99.90;;;;;;4967576;28;20088;-32
2024/01/09 10:19:29;;;;;;;32.38;30.75;;;-2.80;99.90;;;;;;4968659;28;20189;-32
2024/01/09 10:21:55;;;;;;;29.30;27.80;;;-2.70;99.90;;;;;;4981491;28;20145;-41
2024/01/09 10:24:21;;;;;;;28.75;27.27;;;-2.70;99.90;;;;;;4975520;28;22306;-40
2024/01/09 10:26:54;;;;;;;27.13;25.73;;;-2.60;99.90;;;;;;4984308;28;20658;-40
2024/01/09 10:29:20;;;;;;;29.95;28.45;;;-2.50;99.90;;;;;;4983374;28;20129;-40
2024/01/09 10:31:46;;;;;;;28.98;27.48;;;-2.50;99.90;;;;;;4980780;28;20046;-41
2024/01/09 10:34:12;;;;;;;27.17;25.75;;;-2.50;99.90;;;;;;4985851;28;20065;-40
2024/01/09 10:36:38;;;;;;;25.80;24.35;;;-2.40;99.90;;;;;;4988600;28;20058;-40
2024/01/09 10:39:05;;;;;;;22.50;21.30;;;-2.30;99.90;;;;;;4985831;28;20518;-38
2024/01/09 10:41:32;;;;;;;24.33;22.88;;;-2.20;99.90;;;;;;4986768;28;20058;-41
2024/01/09 10:43:59;;;;;;;26.27;24.88;;;-2.20;99.90;;;;;;4983666;28;20046;-40
2024/01/09 10:46:27;;;;;;;28.23;26.67;;;-2.10;99.90;;;;;;4967657;28;20153;-41
2024/01/09 10:48:53;;;;;;;25.48;24.17;;;-2.10;99.90;;;;;;4984691;28;20530;-39
2024/01/09 10:51:22;;;;;;;18.80;17.73;;;-2.00;99.90;;;;;;4982248;28;20116;-39
2024/01/09 10:53:49;;;;;;;26.95;25.45;;;-1.90;99.90;;;;;;4981651;28;20058;-41
2024/01/09 10:56:18;;;;;;;22.80;21.55;;;-1.80;99.90;;;;;;4985087;28;20054;-40
2024/01/09 10:58:46;;;;;;;17.88;16.80;;;-1.70;99.90;;;;;;4985374;28;20050;-41
2024/01/09 11:01:13;;;;;;;23.52;22.02;;;-1.60;99.90;;;;;;4987995;28;20054;-41
2024/01/09 11:03:40;;;;;;;17.63;16.63;;;-1.50;99.90;;;;;;4968072;28;20051;-40
2024/01/09 11:06:07;;;;;;;35.72;33.95;;;-1.40;99.90;;;;;;4985067;28;20065;-40
2024/01/09 11:08:36;;;;;;;13.23;12.40;;;-1.30;99.90;;;;;;4986252;28;20062;-40
2024/01/09 11:11:05;;;;;;;28.63;27.13;;;-1.10;99.90;;;;;;4979980;28;20053;-41
2024/01/09 11:13:36;;;;;;;18.85;17.80;;;-1.10;99.90;;;;;;4984900;28;20145;-42
2024/01/09 11:16:04;;;;;;;17.35;16.35;;;-1.00;99.90;;;;;;4979998;28;20124;-41
2024/01/09 11:18:32;;;;;;;13.98;13.10;;;-0.90;99.90;;;;;;4984961;28;20054;-42
2024/01/09 11:21:03;;;;;;;14.07;13.18;;;-0.80;99.90;;;;;;4984534;28;20054;-42
2024/01/09 11:23:51;;;;;;;19.20;18.20;;;-0.70;99.90;;;;;;4976783;28;20054;-40
2024/01/09 11:26:18;;;;;;;18.75;17.73;;;-0.60;99.90;;;;;;4985362;28;20142;-42
2024/01/09 11:28:45;;;;;;;19.50;18.33;;;-0.40;99.90;;;;;;4989170;28;20058;-42
2024/01/09 11:31:20;;;;;;;15.73;14.82;;;-0.30;99.90;;;;;;4983297;28;20124;-42
2024/01/09 11:33:48;;;;;;;7.20;6.60;;;-0.20;99.90;;;;;;4987156;28;20058;-43
2024/01/09 11:36:22;;;;;;;7.13;6.47;;;-0.10;99.90;;;;;;4985910;28;21234;-41
2024/01/09 11:38:50;;;;;;;5.18;4.68;;;0.10;99.90;;;;;;4983491;28;20053;-39
2024/01/09 11:41:16;;;;;;;5.97;4.30;;;0.20;99.90;;;;;;4967472;28;20519;-42
2024/01/09 11:44:04;;;;;;;3.63;3.20;;;0.30;99.90;;;;;;4989424;28;20046;-41
2024/01/09 11:46:35;;;;;;;3.47;3.17;;;0.50;99.90;;;;;;4988900;28;20562;-41
2024/01/09 11:49:02;;;;;;;3.83;2.97;;;0.60;99.90;;;;;;4989553;28;20054;-42
2024/01/09 11:51:29;;;;;;;4.38;3.42;;;0.80;99.90;;;;;;4984087;28;20205;-40
2024/01/09 11:54:00;;;;;;;4.78;3.10;;;1.00;99.90;;;;;;4988303;28;20485;-40
2024/01/09 11:56:27;;;;;;;2.90;1.02;;;1.30;99.90;;;;;;4980964;28;20590;-41
2024/01/09 11:58:53;;;;;;;4.03;1.27;;;1.50;99.90;;;;;;4986779;28;20046;-42
2024/01/09 12:01:23;;;;;;;2.50;1.20;;;1.70;99.90;;;;;;4987721;28;20042;-40
2024/01/09 12:03:58;;;;;;;2.38;1.13;;;2.00;99.90;;;;;;4991836;28;20073;-40
2024/01/09 12:06:26;;;;;;;2.58;1.10;;;2.30;99.90;;;;;;4988038;28;20050;-42
2024/01/09 12:08:53;;;;;;;2.67;1.10;;;2.50;99.90;;;;;;4988941;28;20046;-42
2024/01/09 12:11:18;;;;;;;2.95;1.23;;;2.70;99.90;;;;;;4985901;28;20400;-42